sensor_id;sensor_type;location;lat;lon;timestamp;P1;durP1;ratioP1;P2;durP2;ratioP2
55140;SDS011;41035;44.280;19.870;2022-12-19T00:01:15;274.55;;;132.15;;
55140;SDS011;41035;44.280;19.870;2022-12-19T00:03:45;260.70;;;127.07;;
55140;SDS011;41035;44.280;19.870;2022-12-19T00:06:12;279.00;;;132.35;;
55140;SDS011;41035;44.280;19.870;2022-12-19T00:08:42;266.60;;;131.70;;
55140;SDS011;41035;44.280;19.870;2022-12-19T00:11:09;260.77;;;126.63;;
55140;SDS011;41035;44.280;19.870;2022-12-19T00:13:35;244.60;;;117.50;;
55140;SDS011;41035;44.280;19.870;2022-12-19T00:16:02;223.55;;;110.43;;
55140;SDS011;41035;44.280;19.870;2022-12-19T00:18:29;216.00;;;100.95;;
55140;SDS011;41035;44.280;19.870;2022-12-19T00:20:57;203.40;;;97.70;;
55140;SDS011;41035;44.280;19.870;2022-12-19T00:23:27;200.15;;;96.63;;
55140;SDS011;41035;44.280;19.870;2022-12-19T00:25:53;206.70;;;98.22;;
55140;SDS011;41035;44.280;19.870;2022-12-19T00:28:20;206.00;;;98.85;;
55140;SDS011;41035;44.280;19.870;2022-12-19T00:30:46;216.93;;;107.38;;
55140;SDS011;41035;44.280;19.870;2022-12-19T00:33:12;245.73;;;118.80;;
55140;SDS011;41035;44.280;19.870;2022-12-19T00:35:38;375.90;;;182.82;;
55140;SDS011;41035;44.280;19.870;2022-12-19T00:38:04;307.42;;;146.25;;
55140;SDS011;41035;44.280;19.870;2022-12-19T00:40:30;313.38;;;144.57;;
55140;SDS011;41035;44.280;19.870;2022-12-19T00:42:59;265.83;;;131.27;;
55140;SDS011;41035;44.280;19.870;2022-12-19T00:45:25;242.02;;;118.53;;
55140;SDS011;41035;44.280;19.870;2022-12-19T00:47:51;282.25;;;136.55;;
55140;SDS011;41035;44.280;19.870;2022-12-19T00:50:32;278.73;;;132.95;;
55140;SDS011;41035;44.280;19.870;2022-12-19T00:53:01;305.20;;;146.80;;
55140;SDS011;41035;44.280;19.870;2022-12-19T00:55:28;284.67;;;135.38;;
55140;SDS011;41035;44.280;19.870;2022-12-19T00:57:54;274.42;;;130.63;;
55140;SDS011;41035;44.280;19.870;2022-12-19T01:00:29;274.75;;;128.82;;
55140;SDS011;41035;44.280;19.870;2022-12-19T01:02:55;276.15;;;131.45;;
55140;SDS011;41035;44.280;19.870;2022-12-19T01:05:22;291.77;;;142.63;;
55140;SDS011;41035;44.280;19.870;2022-12-19T01:07:48;314.90;;;149.32;;
55140;SDS011;41035;44.280;19.870;2022-12-19T01:10:14;309.23;;;149.05;;
55140;SDS011;41035;44.280;19.870;2022-12-19T01:12:40;327.63;;;153.32;;
55140;SDS011;41035;44.280;19.870;2022-12-19T01:15:17;285.73;;;136.35;;
55140;SDS011;41035;44.280;19.870;2022-12-19T01:17:44;280.02;;;134.73;;
55140;SDS011;41035;44.280;19.870;2022-12-19T01:20:12;296.65;;;139.35;;
55140;SDS011;41035;44.280;19.870;2022-12-19T01:22:38;272.92;;;131.40;;
55140;SDS011;41035;44.280;19.870;2022-12-19T01:25:04;261.17;;;126.70;;
55140;SDS011;41035;44.280;19.870;2022-12-19T01:27:31;263.73;;;124.75;;
55140;SDS011;41035;44.280;19.870;2022-12-19T01:29:57;301.35;;;148.20;;
55140;SDS011;41035;44.280;19.870;2022-12-19T01:32:23;387.45;;;176.30;;
55140;SDS011;41035;44.280;19.870;2022-12-19T01:34:49;567.20;;;258.50;;
55140;SDS011;41035;44.280;19.870;2022-12-19T01:37:15;547.30;;;255.05;;
55140;SDS011;41035;44.280;19.870;2022-12-19T01:39:41;377.38;;;172.10;;
55140;SDS011;41035;44.280;19.870;2022-12-19T01:42:14;352.02;;;158.90;;
55140;SDS011;41035;44.280;19.870;2022-12-19T01:44:57;259.60;;;122.90;;
55140;SDS011;41035;44.280;19.870;2022-12-19T01:47:23;205.98;;;99.57;;
55140;SDS011;41035;44.280;19.870;2022-12-19T01:49:49;196.43;;;96.10;;
55140;SDS011;41035;44.280;19.870;2022-12-19T01:52:15;204.13;;;100.88;;
55140;SDS011;41035;44.280;19.870;2022-12-19T01:54:41;228.27;;;106.82;;
55140;SDS011;41035;44.280;19.870;2022-12-19T01:57:09;196.40;;;94.82;;
55140;SDS011;41035;44.280;19.870;2022-12-19T02:02:07;191.48;;;91.68;;
55140;SDS011;41035;44.280;19.870;2022-12-19T02:04:37;181.55;;;87.30;;
55140;SDS011;41035;44.280;19.870;2022-12-19T02:07:04;179.50;;;85.60;;
55140;SDS011;41035;44.280;19.870;2022-12-19T02:09:31;186.25;;;89.53;;
55140;SDS011;41035;44.280;19.870;2022-12-19T02:11:58;192.20;;;87.95;;
55140;SDS011;41035;44.280;19.870;2022-12-19T02:14:40;186.65;;;86.32;;
55140;SDS011;41035;44.280;19.870;2022-12-19T02:31:48;177.00;;;85.25;;
55140;SDS011;41035;44.280;19.870;2022-12-19T02:34:25;200.55;;;101.85;;
55140;SDS011;41035;44.280;19.870;2022-12-19T02:40:28;166.57;;;79.10;;
55140;SDS011;41035;44.280;19.870;2022-12-19T02:43:27;159.27;;;74.03;;
55140;SDS011;41035;44.280;19.870;2022-12-19T02:45:55;151.02;;;71.72;;
55140;SDS011;41035;44.280;19.870;2022-12-19T02:48:22;138.60;;;66.65;;
55140;SDS011;41035;44.280;19.870;2022-12-19T02:50:51;141.82;;;68.40;;
55140;SDS011;41035;44.280;19.870;2022-12-19T02:53:36;139.48;;;63.65;;
55140;SDS011;41035;44.280;19.870;2022-12-19T02:59:05;193.73;;;81.63;;
55140;SDS011;41035;44.280;19.870;2022-12-19T03:12:06;158.50;;;70.90;;
55140;SDS011;41035;44.280;19.870;2022-12-19T03:14:40;146.63;;;69.15;;
55140;SDS011;41035;44.280;19.870;2022-12-19T03:17:19;151.02;;;69.45;;
55140;SDS011;41035;44.280;19.870;2022-12-19T03:19:48;136.88;;;64.75;;
55140;SDS011;41035;44.280;19.870;2022-12-19T03:22:14;134.38;;;62.40;;
55140;SDS011;41035;44.280;19.870;2022-12-19T03:24:40;141.05;;;65.25;;
55140;SDS011;41035;44.280;19.870;2022-12-19T03:30:08;133.90;;;64.00;;
55140;SDS011;41035;44.280;19.870;2022-12-19T03:32:47;142.10;;;63.72;;
55140;SDS011;41035;44.280;19.870;2022-12-19T03:35:16;134.95;;;65.13;;
55140;SDS011;41035;44.280;19.870;2022-12-19T03:37:43;128.85;;;60.13;;
55140;SDS011;41035;44.280;19.870;2022-12-19T03:40:26;137.60;;;60.50;;
55140;SDS011;41035;44.280;19.870;2022-12-19T03:45:28;119.05;;;55.75;;
55140;SDS011;41035;44.280;19.870;2022-12-19T03:47:57;128.23;;;58.35;;
55140;SDS011;41035;44.280;19.870;2022-12-19T03:50:27;132.23;;;59.00;;
55140;SDS011;41035;44.280;19.870;2022-12-19T03:53:11;223.60;;;87.50;;
55140;SDS011;41035;44.280;19.870;2022-12-19T03:55:45;210.32;;;83.97;;
55140;SDS011;41035;44.280;19.870;2022-12-19T03:58:13;250.40;;;103.03;;
55140;SDS011;41035;44.280;19.870;2022-12-19T04:00:43;430.58;;;184.85;;
55140;SDS011;41035;44.280;19.870;2022-12-19T04:03:17;197.95;;;97.85;;
55140;SDS011;41035;44.280;19.870;2022-12-19T04:05:44;254.85;;;90.50;;
55140;SDS011;41035;44.280;19.870;2022-12-19T04:08:20;225.00;;;87.72;;
55140;SDS011;41035;44.280;19.870;2022-12-19T04:13:31;160.85;;;67.03;;
55140;SDS011;41035;44.280;19.870;2022-12-19T04:18:24;122.75;;;53.50;;
55140;SDS011;41035;44.280;19.870;2022-12-19T04:21:01;111.57;;;53.03;;
55140;SDS011;41035;44.280;19.870;2022-12-19T04:23:36;109.53;;;52.97;;
55140;SDS011;41035;44.280;19.870;2022-12-19T04:26:28;130.43;;;59.13;;
55140;SDS011;41035;44.280;19.870;2022-12-19T04:29:07;158.23;;;73.07;;
55140;SDS011;41035;44.280;19.870;2022-12-19T04:31:33;142.98;;;66.45;;
55140;SDS011;41035;44.280;19.870;2022-12-19T04:34:19;154.60;;;72.70;;
55140;SDS011;41035;44.280;19.870;2022-12-19T04:36:46;136.43;;;63.00;;
55140;SDS011;41035;44.280;19.870;2022-12-19T04:39:43;132.57;;;57.95;;
55140;SDS011;41035;44.280;19.870;2022-12-19T04:42:09;132.90;;;61.45;;
55140;SDS011;41035;44.280;19.870;2022-12-19T04:44:54;138.65;;;63.17;;
55140;SDS011;41035;44.280;19.870;2022-12-19T04:47:20;155.65;;;67.18;;
55140;SDS011;41035;44.280;19.870;2022-12-19T04:49:46;182.40;;;79.28;;
55140;SDS011;41035;44.280;19.870;2022-12-19T04:52:15;199.27;;;85.88;;
55140;SDS011;41035;44.280;19.870;2022-12-19T04:54:41;176.80;;;86.72;;
55140;SDS011;41035;44.280;19.870;2022-12-19T04:57:10;164.10;;;74.82;;
55140;SDS011;41035;44.280;19.870;2022-12-19T04:59:36;139.10;;;65.85;;
55140;SDS011;41035;44.280;19.870;2022-12-19T05:02:06;132.60;;;61.00;;
55140;SDS011;41035;44.280;19.870;2022-12-19T05:04:35;164.95;;;70.88;;
55140;SDS011;41035;44.280;19.870;2022-12-19T05:07:01;118.18;;;53.50;;
55140;SDS011;41035;44.280;19.870;2022-12-19T05:09:27;129.35;;;57.88;;
55140;SDS011;41035;44.280;19.870;2022-12-19T05:11:53;114.15;;;57.67;;
55140;SDS011;41035;44.280;19.870;2022-12-19T05:14:19;116.47;;;52.97;;
55140;SDS011;41035;44.280;19.870;2022-12-19T05:16:45;114.07;;;53.97;;
55140;SDS011;41035;44.280;19.870;2022-12-19T05:19:11;132.45;;;59.08;;
55140;SDS011;41035;44.280;19.870;2022-12-19T05:21:39;138.73;;;60.65;;
55140;SDS011;41035;44.280;19.870;2022-12-19T05:24:05;116.07;;;53.53;;
55140;SDS011;41035;44.280;19.870;2022-12-19T05:26:31;137.18;;;60.70;;
55140;SDS011;41035;44.280;19.870;2022-12-19T05:28:58;139.18;;;59.83;;
55140;SDS011;41035;44.280;19.870;2022-12-19T05:31:24;133.82;;;63.95;;
55140;SDS011;41035;44.280;19.870;2022-12-19T05:33:50;165.80;;;77.82;;
55140;SDS011;41035;44.280;19.870;2022-12-19T05:36:16;196.13;;;86.95;;
55140;SDS011;41035;44.280;19.870;2022-12-19T05:38:43;227.80;;;100.53;;
55140;SDS011;41035;44.280;19.870;2022-12-19T05:41:19;263.52;;;111.28;;
55140;SDS011;41035;44.280;19.870;2022-12-19T05:43:48;510.85;;;225.70;;
55140;SDS011;41035;44.280;19.870;2022-12-19T05:46:21;393.45;;;167.35;;
55140;SDS011;41035;44.280;19.870;2022-12-19T05:49:00;418.90;;;184.65;;
55140;SDS011;41035;44.280;19.870;2022-12-19T05:51:26;643.08;;;279.73;;
55140;SDS011;41035;44.280;19.870;2022-12-19T05:53:54;515.63;;;221.68;;
55140;SDS011;41035;44.280;19.870;2022-12-19T05:56:41;521.65;;;226.45;;
55140;SDS011;41035;44.280;19.870;2022-12-19T05:59:07;314.58;;;127.97;;
55140;SDS011;41035;44.280;19.870;2022-12-19T06:01:35;205.90;;;90.82;;
55140;SDS011;41035;44.280;19.870;2022-12-19T06:04:19;220.82;;;100.60;;
55140;SDS011;41035;44.280;19.870;2022-12-19T06:06:45;254.70;;;117.68;;
55140;SDS011;41035;44.280;19.870;2022-12-19T06:09:24;466.95;;;222.60;;
55140;SDS011;41035;44.280;19.870;2022-12-19T06:11:53;333.77;;;150.15;;
55140;SDS011;41035;44.280;19.870;2022-12-19T06:14:19;265.02;;;120.95;;
55140;SDS011;41035;44.280;19.870;2022-12-19T06:16:45;291.58;;;125.25;;
55140;SDS011;41035;44.280;19.870;2022-12-19T06:19:21;215.77;;;100.45;;
55140;SDS011;41035;44.280;19.870;2022-12-19T06:21:47;214.63;;;98.45;;
55140;SDS011;41035;44.280;19.870;2022-12-19T06:24:34;210.93;;;94.72;;
55140;SDS011;41035;44.280;19.870;2022-12-19T06:27:15;191.38;;;88.65;;
55140;SDS011;41035;44.280;19.870;2022-12-19T06:29:42;170.85;;;75.85;;
55140;SDS011;41035;44.280;19.870;2022-12-19T06:32:23;165.90;;;78.30;;
55140;SDS011;41035;44.280;19.870;2022-12-19T06:34:55;168.75;;;76.75;;
55140;SDS011;41035;44.280;19.870;2022-12-19T06:37:21;150.95;;;71.68;;
55140;SDS011;41035;44.280;19.870;2022-12-19T06:39:50;151.27;;;74.85;;
55140;SDS011;41035;44.280;19.870;2022-12-19T06:42:35;141.15;;;64.30;;
55140;SDS011;41035;44.280;19.870;2022-12-19T06:45:10;127.00;;;59.78;;
55140;SDS011;41035;44.280;19.870;2022-12-19T06:47:36;142.10;;;66.43;;
55140;SDS011;41035;44.280;19.870;2022-12-19T06:50:02;121.07;;;57.03;;
55140;SDS011;41035;44.280;19.870;2022-12-19T06:52:28;117.03;;;53.53;;
55140;SDS011;41035;44.280;19.870;2022-12-19T06:54:57;114.78;;;53.58;;
55140;SDS011;41035;44.280;19.870;2022-12-19T06:57:23;118.70;;;54.75;;
55140;SDS011;41035;44.280;19.870;2022-12-19T06:59:59;106.22;;;49.35;;
55140;SDS011;41035;44.280;19.870;2022-12-19T07:02:31;155.18;;;70.60;;
55140;SDS011;41035;44.280;19.870;2022-12-19T07:04:59;155.93;;;71.28;;
55140;SDS011;41035;44.280;19.870;2022-12-19T07:07:27;158.25;;;69.93;;
55140;SDS011;41035;44.280;19.870;2022-12-19T07:09:53;128.85;;;58.80;;
55140;SDS011;41035;44.280;19.870;2022-12-19T07:12:19;147.50;;;65.80;;
55140;SDS011;41035;44.280;19.870;2022-12-19T07:14:46;136.73;;;62.35;;
55140;SDS011;41035;44.280;19.870;2022-12-19T07:17:12;205.93;;;85.13;;
55140;SDS011;41035;44.280;19.870;2022-12-19T07:19:38;130.45;;;60.22;;
55140;SDS011;41035;44.280;19.870;2022-12-19T07:22:04;169.18;;;75.80;;
55140;SDS011;41035;44.280;19.870;2022-12-19T07:24:36;219.85;;;105.30;;
55140;SDS011;41035;44.280;19.870;2022-12-19T07:27:08;192.05;;;92.70;;
55140;SDS011;41035;44.280;19.870;2022-12-19T07:29:34;173.52;;;83.50;;
55140;SDS011;41035;44.280;19.870;2022-12-19T07:32:09;283.45;;;132.15;;
55140;SDS011;41035;44.280;19.870;2022-12-19T07:34:35;361.80;;;175.63;;
55140;SDS011;41035;44.280;19.870;2022-12-19T07:37:19;427.58;;;218.02;;
55140;SDS011;41035;44.280;19.870;2022-12-19T07:39:46;303.27;;;139.15;;
55140;SDS011;41035;44.280;19.870;2022-12-19T07:42:12;211.60;;;102.50;;
55140;SDS011;41035;44.280;19.870;2022-12-19T07:44:38;198.05;;;97.25;;
55140;SDS011;41035;44.280;19.870;2022-12-19T07:47:10;165.50;;;80.60;;
55140;SDS011;41035;44.280;19.870;2022-12-19T07:49:39;162.48;;;81.20;;
55140;SDS011;41035;44.280;19.870;2022-12-19T07:52:05;192.82;;;96.97;;
55140;SDS011;41035;44.280;19.870;2022-12-19T07:54:32;183.02;;;90.68;;
55140;SDS011;41035;44.280;19.870;2022-12-19T07:56:59;281.27;;;132.73;;
55140;SDS011;41035;44.280;19.870;2022-12-19T07:59:28;268.35;;;133.80;;
55140;SDS011;41035;44.280;19.870;2022-12-19T08:01:54;416.77;;;211.43;;
55140;SDS011;41035;44.280;19.870;2022-12-19T08:04:20;629.00;;;320.30;;
55140;SDS011;41035;44.280;19.870;2022-12-19T08:06:47;644.17;;;324.10;;
55140;SDS011;41035;44.280;19.870;2022-12-19T08:09:13;549.30;;;276.75;;
55140;SDS011;41035;44.280;19.870;2022-12-19T08:11:39;499.05;;;247.27;;
55140;SDS011;41035;44.280;19.870;2022-12-19T08:14:05;497.30;;;255.77;;
55140;SDS011;41035;44.280;19.870;2022-12-19T08:16:31;511.88;;;268.90;;
55140;SDS011;41035;44.280;19.870;2022-12-19T08:18:58;483.75;;;246.00;;
55140;SDS011;41035;44.280;19.870;2022-12-19T08:21:24;430.60;;;209.75;;
55140;SDS011;41035;44.280;19.870;2022-12-19T08:23:50;388.73;;;181.70;;
55140;SDS011;41035;44.280;19.870;2022-12-19T08:26:16;405.50;;;196.35;;
55140;SDS011;41035;44.280;19.870;2022-12-19T08:28:49;427.17;;;206.40;;
55140;SDS011;41035;44.280;19.870;2022-12-19T08:31:16;424.08;;;204.65;;
55140;SDS011;41035;44.280;19.870;2022-12-19T08:33:42;436.45;;;219.73;;
55140;SDS011;41035;44.280;19.870;2022-12-19T08:36:09;427.02;;;215.48;;
55140;SDS011;41035;44.280;19.870;2022-12-19T08:38:36;348.40;;;169.63;;
55140;SDS011;41035;44.280;19.870;2022-12-19T08:41:03;373.50;;;178.32;;
55140;SDS011;41035;44.280;19.870;2022-12-19T08:43:30;397.20;;;192.50;;
55140;SDS011;41035;44.280;19.870;2022-12-19T08:45:56;441.67;;;216.05;;
55140;SDS011;41035;44.280;19.870;2022-12-19T08:48:22;330.42;;;150.35;;
55140;SDS011;41035;44.280;19.870;2022-12-19T08:53:15;350.42;;;161.80;;
55140;SDS011;41035;44.280;19.870;2022-12-19T08:55:41;355.98;;;159.63;;
55140;SDS011;41035;44.280;19.870;2022-12-19T08:58:13;429.48;;;208.25;;
55140;SDS011;41035;44.280;19.870;2022-12-19T09:00:39;255.23;;;120.18;;
55140;SDS011;41035;44.280;19.870;2022-12-19T09:03:29;264.83;;;123.80;;
55140;SDS011;41035;44.280;19.870;2022-12-19T09:08:47;380.13;;;185.75;;
55140;SDS011;41035;44.280;19.870;2022-12-19T09:11:22;295.08;;;134.57;;
55140;SDS011;41035;44.280;19.870;2022-12-19T09:13:49;304.90;;;140.90;;
55140;SDS011;41035;44.280;19.870;2022-12-19T09:16:16;326.40;;;156.63;;
55140;SDS011;41035;44.280;19.870;2022-12-19T09:18:47;264.80;;;125.53;;
55140;SDS011;41035;44.280;19.870;2022-12-19T09:21:21;301.80;;;133.63;;
55140;SDS011;41035;44.280;19.870;2022-12-19T09:23:51;308.38;;;151.02;;
55140;SDS011;41035;44.280;19.870;2022-12-19T09:26:18;240.20;;;113.78;;
55140;SDS011;41035;44.280;19.870;2022-12-19T09:29:11;242.63;;;112.85;;
55140;SDS011;41035;44.280;19.870;2022-12-19T09:31:53;240.82;;;111.15;;
55140;SDS011;41035;44.280;19.870;2022-12-19T09:34:31;240.68;;;111.90;;
55140;SDS011;41035;44.280;19.870;2022-12-19T09:37:03;532.72;;;269.65;;
55140;SDS011;41035;44.280;19.870;2022-12-19T09:39:29;265.05;;;128.27;;
55140;SDS011;41035;44.280;19.870;2022-12-19T09:42:23;353.27;;;165.55;;
55140;SDS011;41035;44.280;19.870;2022-12-19T09:47:28;377.48;;;186.88;;
55140;SDS011;41035;44.280;19.870;2022-12-19T09:49:54;399.13;;;187.27;;
55140;SDS011;41035;44.280;19.870;2022-12-19T09:59:57;261.73;;;119.53;;
55140;SDS011;41035;44.280;19.870;2022-12-19T10:04:56;285.90;;;132.55;;
55140;SDS011;41035;44.280;19.870;2022-12-19T10:07:54;251.13;;;116.63;;
55140;SDS011;41035;44.280;19.870;2022-12-19T10:10:29;236.77;;;112.95;;
55140;SDS011;41035;44.280;19.870;2022-12-19T10:19:07;219.77;;;105.85;;
55140;SDS011;41035;44.280;19.870;2022-12-19T10:24:35;194.55;;;93.97;;
55140;SDS011;41035;44.280;19.870;2022-12-19T10:32:33;279.83;;;123.13;;
55140;SDS011;41035;44.280;19.870;2022-12-19T10:35:04;244.40;;;113.10;;
55140;SDS011;41035;44.280;19.870;2022-12-19T10:37:37;204.75;;;93.93;;
55140;SDS011;41035;44.280;19.870;2022-12-19T10:45:51;167.38;;;78.07;;
55140;SDS011;41035;44.280;19.870;2022-12-19T10:48:16;220.65;;;102.70;;
55140;SDS011;41035;44.280;19.870;2022-12-19T10:50:43;201.15;;;107.22;;
55140;SDS011;41035;44.280;19.870;2022-12-19T10:53:09;341.17;;;153.30;;
55140;SDS011;41035;44.280;19.870;2022-12-19T10:55:40;739.00;;;355.25;;
55140;SDS011;41035;44.280;19.870;2022-12-19T10:58:17;224.80;;;106.57;;
55140;SDS011;41035;44.280;19.870;2022-12-19T11:03:29;253.40;;;112.80;;
55140;SDS011;41035;44.280;19.870;2022-12-19T11:05:56;243.02;;;110.80;;
55140;SDS011;41035;44.280;19.870;2022-12-19T11:08:26;182.23;;;85.70;;
55140;SDS011;41035;44.280;19.870;2022-12-19T11:10:59;158.68;;;75.93;;
55140;SDS011;41035;44.280;19.870;2022-12-19T11:16:01;163.30;;;81.03;;
55140;SDS011;41035;44.280;19.870;2022-12-19T11:18:46;170.63;;;84.10;;
55140;SDS011;41035;44.280;19.870;2022-12-19T11:23:52;152.98;;;76.43;;
55140;SDS011;41035;44.280;19.870;2022-12-19T11:28:51;143.25;;;70.35;;
55140;SDS011;41035;44.280;19.870;2022-12-19T11:33:45;151.65;;;73.47;;
55140;SDS011;41035;44.280;19.870;2022-12-19T11:36:25;107.72;;;53.38;;
55140;SDS011;41035;44.280;19.870;2022-12-19T11:38:55;97.25;;;45.83;;
55140;SDS011;41035;44.280;19.870;2022-12-19T11:41:28;104.75;;;49.28;;
55140;SDS011;41035;44.280;19.870;2022-12-19T11:44:00;137.55;;;69.50;;
55140;SDS011;41035;44.280;19.870;2022-12-19T11:51:49;140.43;;;63.03;;
55140;SDS011;41035;44.280;19.870;2022-12-19T11:56:43;116.97;;;52.90;;
55140;SDS011;41035;44.280;19.870;2022-12-19T11:59:19;106.82;;;51.75;;
55140;SDS011;41035;44.280;19.870;2022-12-19T12:04:36;126.63;;;54.78;;
55140;SDS011;41035;44.280;19.870;2022-12-19T12:07:03;223.90;;;87.30;;
55140;SDS011;41035;44.280;19.870;2022-12-19T12:14:54;109.10;;;52.50;;
55140;SDS011;41035;44.280;19.870;2022-12-19T12:30:27;120.75;;;57.55;;
55140;SDS011;41035;44.280;19.870;2022-12-19T12:35:56;93.68;;;47.22;;
55140;SDS011;41035;44.280;19.870;2022-12-19T12:39:03;98.60;;;50.33;;
55140;SDS011;41035;44.280;19.870;2022-12-19T12:44:36;111.55;;;51.58;;
55140;SDS011;41035;44.280;19.870;2022-12-19T12:47:22;101.53;;;45.40;;
55140;SDS011;41035;44.280;19.870;2022-12-19T12:52:18;139.63;;;66.00;;
55140;SDS011;41035;44.280;19.870;2022-12-19T12:54:48;124.20;;;54.00;;
55140;SDS011;41035;44.280;19.870;2022-12-19T12:59:45;114.70;;;51.53;;
55140;SDS011;41035;44.280;19.870;2022-12-19T13:04:41;121.45;;;58.55;;
55140;SDS011;41035;44.280;19.870;2022-12-19T13:07:26;66.72;;;34.15;;
55140;SDS011;41035;44.280;19.870;2022-12-19T13:10:06;121.40;;;60.17;;
55140;SDS011;41035;44.280;19.870;2022-12-19T13:13:00;114.45;;;55.72;;
55140;SDS011;41035;44.280;19.870;2022-12-19T13:20:48;121.50;;;58.72;;
55140;SDS011;41035;44.280;19.870;2022-12-19T13:26:22;239.70;;;110.60;;
55140;SDS011;41035;44.280;19.870;2022-12-19T13:29:26;190.23;;;82.40;;
55140;SDS011;41035;44.280;19.870;2022-12-19T13:32:08;180.48;;;69.10;;
55140;SDS011;41035;44.280;19.870;2022-12-19T13:46:05;126.85;;;59.50;;
55140;SDS011;41035;44.280;19.870;2022-12-19T13:48:47;99.22;;;47.05;;
55140;SDS011;41035;44.280;19.870;2022-12-19T13:51:14;103.07;;;48.30;;
55140;SDS011;41035;44.280;19.870;2022-12-19T13:53:41;108.22;;;51.63;;
55140;SDS011;41035;44.280;19.870;2022-12-19T14:01:29;160.15;;;75.43;;
55140;SDS011;41035;44.280;19.870;2022-12-19T14:03:58;157.10;;;66.82;;
55140;SDS011;41035;44.280;19.870;2022-12-19T14:06:38;165.90;;;74.90;;
55140;SDS011;41035;44.280;19.870;2022-12-19T14:11:57;149.10;;;70.10;;
55140;SDS011;41035;44.280;19.870;2022-12-19T14:14:33;104.55;;;48.72;;
55140;SDS011;41035;44.280;19.870;2022-12-19T14:17:18;123.55;;;58.22;;
55140;SDS011;41035;44.280;19.870;2022-12-19T14:19:45;162.38;;;77.45;;
55140;SDS011;41035;44.280;19.870;2022-12-19T14:22:13;169.57;;;68.72;;
55140;SDS011;41035;44.280;19.870;2022-12-19T14:24:39;214.23;;;87.72;;
55140;SDS011;41035;44.280;19.870;2022-12-19T14:27:13;119.28;;;56.53;;
55140;SDS011;41035;44.280;19.870;2022-12-19T14:29:44;163.50;;;76.43;;
55140;SDS011;41035;44.280;19.870;2022-12-19T14:32:11;186.45;;;85.10;;
55140;SDS011;41035;44.280;19.870;2022-12-19T14:34:38;170.82;;;80.85;;
55140;SDS011;41035;44.280;19.870;2022-12-19T14:37:04;181.85;;;83.45;;
55140;SDS011;41035;44.280;19.870;2022-12-19T14:39:31;185.90;;;87.00;;
55140;SDS011;41035;44.280;19.870;2022-12-19T14:42:04;149.27;;;69.15;;
55140;SDS011;41035;44.280;19.870;2022-12-19T14:44:53;157.57;;;73.20;;
55140;SDS011;41035;44.280;19.870;2022-12-19T14:47:21;171.93;;;78.03;;
55140;SDS011;41035;44.280;19.870;2022-12-19T14:49:48;217.03;;;102.93;;
55140;SDS011;41035;44.280;19.870;2022-12-19T14:57:44;188.05;;;87.95;;
55140;SDS011;41035;44.280;19.870;2022-12-19T15:00:21;242.25;;;107.53;;
55140;SDS011;41035;44.280;19.870;2022-12-19T15:02:48;196.32;;;89.40;;
55140;SDS011;41035;44.280;19.870;2022-12-19T15:05:18;213.85;;;103.07;;
55140;SDS011;41035;44.280;19.870;2022-12-19T15:07:49;211.43;;;100.60;;
55140;SDS011;41035;44.280;19.870;2022-12-19T15:10:16;172.02;;;81.63;;
55140;SDS011;41035;44.280;19.870;2022-12-19T15:15:41;221.60;;;106.63;;
55140;SDS011;41035;44.280;19.870;2022-12-19T15:18:45;208.10;;;103.53;;
55140;SDS011;41035;44.280;19.870;2022-12-19T15:21:17;191.43;;;95.70;;
55140;SDS011;41035;44.280;19.870;2022-12-19T15:23:43;229.40;;;115.28;;
55140;SDS011;41035;44.280;19.870;2022-12-19T15:26:10;266.17;;;130.70;;
55140;SDS011;41035;44.280;19.870;2022-12-19T15:28:38;266.17;;;133.88;;
55140;SDS011;41035;44.280;19.870;2022-12-19T15:31:37;292.10;;;140.93;;
55140;SDS011;41035;44.280;19.870;2022-12-19T15:37:11;325.55;;;165.82;;
55140;SDS011;41035;44.280;19.870;2022-12-19T15:39:41;374.50;;;187.23;;
55140;SDS011;41035;44.280;19.870;2022-12-19T15:42:20;274.33;;;137.20;;
55140;SDS011;41035;44.280;19.870;2022-12-19T15:44:46;299.58;;;154.40;;
55140;SDS011;41035;44.280;19.870;2022-12-19T15:50:20;199.00;;;94.72;;
55140;SDS011;41035;44.280;19.870;2022-12-19T15:52:47;143.45;;;66.47;;
55140;SDS011;41035;44.280;19.870;2022-12-19T15:55:14;194.73;;;95.10;;
55140;SDS011;41035;44.280;19.870;2022-12-19T15:57:41;215.63;;;103.28;;
55140;SDS011;41035;44.280;19.870;2022-12-19T16:02:44;166.70;;;79.32;;
55140;SDS011;41035;44.280;19.870;2022-12-19T16:05:11;134.18;;;64.32;;
55140;SDS011;41035;44.280;19.870;2022-12-19T16:07:37;161.73;;;71.43;;
55140;SDS011;41035;44.280;19.870;2022-12-19T16:10:03;146.48;;;73.15;;
55140;SDS011;41035;44.280;19.870;2022-12-19T16:12:31;213.70;;;103.80;;
55140;SDS011;41035;44.280;19.870;2022-12-19T16:15:05;207.30;;;97.68;;
55140;SDS011;41035;44.280;19.870;2022-12-19T16:17:32;193.82;;;88.57;;
55140;SDS011;41035;44.280;19.870;2022-12-19T16:19:58;196.20;;;92.28;;
55140;SDS011;41035;44.280;19.870;2022-12-19T16:22:25;182.25;;;90.13;;
55140;SDS011;41035;44.280;19.870;2022-12-19T16:24:52;175.05;;;83.82;;
55140;SDS011;41035;44.280;19.870;2022-12-19T16:27:29;137.82;;;66.88;;
55140;SDS011;41035;44.280;19.870;2022-12-19T16:29:56;136.73;;;69.43;;
55140;SDS011;41035;44.280;19.870;2022-12-19T16:32:54;216.93;;;96.22;;
55140;SDS011;41035;44.280;19.870;2022-12-19T16:35:38;269.58;;;129.27;;
55140;SDS011;41035;44.280;19.870;2022-12-19T16:38:07;324.17;;;152.07;;
55140;SDS011;41035;44.280;19.870;2022-12-19T16:40:33;348.80;;;169.13;;
55140;SDS011;41035;44.280;19.870;2022-12-19T16:43:22;367.05;;;174.90;;
55140;SDS011;41035;44.280;19.870;2022-12-19T16:46:05;326.23;;;153.30;;
55140;SDS011;41035;44.280;19.870;2022-12-19T16:48:40;297.77;;;139.35;;
55140;SDS011;41035;44.280;19.870;2022-12-19T16:51:08;276.92;;;133.50;;
55140;SDS011;41035;44.280;19.870;2022-12-19T16:53:41;227.80;;;117.45;;
55140;SDS011;41035;44.280;19.870;2022-12-19T16:56:18;320.17;;;156.38;;
55140;SDS011;41035;44.280;19.870;2022-12-19T16:58:46;461.10;;;233.55;;
55140;SDS011;41035;44.280;19.870;2022-12-19T17:01:12;511.60;;;231.35;;
55140;SDS011;41035;44.280;19.870;2022-12-19T17:03:42;433.45;;;216.90;;
55140;SDS011;41035;44.280;19.870;2022-12-19T17:06:12;443.17;;;224.15;;
55140;SDS011;41035;44.280;19.870;2022-12-19T17:08:38;342.35;;;151.95;;
55140;SDS011;41035;44.280;19.870;2022-12-19T17:11:04;318.67;;;150.55;;
55140;SDS011;41035;44.280;19.870;2022-12-19T17:13:32;300.90;;;139.07;;
55140;SDS011;41035;44.280;19.870;2022-12-19T17:15:58;283.63;;;132.65;;